createdAt,value
2023-05-08T00:00:45.978Z,28.03
2023-05-08T00:02:47.539Z,28.02
2023-05-08T00:04:49.097Z,28.02
2023-05-08T00:06:51.720Z,28.02
2023-05-08T00:08:54.010Z,28.01
2023-05-08T00:10:55.376Z,28.02
2023-05-08T00:12:57.001Z,28.01
2023-05-08T00:14:58.504Z,28.02
2023-05-08T00:17:00.302Z,28.02
2023-05-08T00:19:01.940Z,28.02
2023-05-08T00:21:03.549Z,28.02
2023-05-08T00:23:05.206Z,28.01
2023-05-08T00:25:06.906Z,28.00
2023-05-08T00:27:08.433Z,28.00
2023-05-08T00:29:09.954Z,27.99
2023-05-08T00:31:11.892Z,27.97
2023-05-08T00:33:13.435Z,27.99
2023-05-08T00:35:14.939Z,27.98
2023-05-08T00:37:16.476Z,27.99
2023-05-08T00:39:18.583Z,27.99
2023-05-08T00:41:20.182Z,28.00
2023-05-08T00:43:25.782Z,28.00
2023-05-08T00:45:34.470Z,27.99
2023-05-08T00:47:36.085Z,27.98
2023-05-08T00:49:38.335Z,27.98
2023-05-08T00:51:41.135Z,27.98
2023-05-08T00:53:45.559Z,27.97
2023-05-08T00:55:47.587Z,27.96
2023-05-08T00:57:49.228Z,27.95
2023-05-08T00:59:51.531Z,27.97
2023-05-08T01:01:53.133Z,27.96
2023-05-08T01:03:54.868Z,27.96
2023-05-08T01:05:57.130Z,27.95
2023-05-08T01:07:58.534Z,27.96
2023-05-08T01:10:00.335Z,27.97
2023-05-08T01:12:10.493Z,27.96
2023-05-08T01:14:19.386Z,27.95
2023-05-08T01:16:39.609Z,27.95
2023-05-08T01:18:57.066Z,27.94
2023-05-08T01:21:03.491Z,27.85
2023-05-08T01:23:07.818Z,27.93
2023-05-08T01:25:27.078Z,27.92
2023-05-08T01:27:34.489Z,27.91
2023-05-08T01:29:59.001Z,27.92
2023-05-08T01:32:00.413Z,27.92
2023-05-08T01:34:05.198Z,27.92
2023-05-08T01:36:13.849Z,27.92
2023-05-08T01:38:15.293Z,27.93
2023-05-08T01:40:19.556Z,27.91
2023-05-08T01:42:26.950Z,27.91
2023-05-08T01:44:32.001Z,27.91
2023-05-08T01:46:34.376Z,27.90
2023-05-08T01:48:39.121Z,27.90
2023-05-08T01:50:48.597Z,27.89
2023-05-08T01:52:53.112Z,27.88
2023-05-08T01:55:01.933Z,27.88
2023-05-08T01:57:04.452Z,27.88
2023-05-08T01:59:06.602Z,27.88
2023-05-08T02:01:09.055Z,27.88
2023-05-08T02:03:11.999Z,27.88
2023-05-08T02:05:14.570Z,27.88
2023-05-08T02:07:16.327Z,27.87
2023-05-08T02:09:19.846Z,27.88
2023-05-08T02:11:22.754Z,27.87
2023-05-08T02:13:25.546Z,27.86
2023-05-08T02:15:27.782Z,27.85
2023-05-08T02:17:30.823Z,27.84
2023-05-08T02:19:33.784Z,27.84
2023-05-08T02:21:35.862Z,27.84
2023-05-08T02:23:37.824Z,27.84
2023-05-08T02:25:39.959Z,27.75
2023-05-08T02:27:46.483Z,27.84
2023-05-08T02:29:48.663Z,27.84
2023-05-08T02:31:51.968Z,27.84
2023-05-08T02:33:53.983Z,27.84
2023-05-08T02:35:56.687Z,27.83
2023-05-08T02:37:58.543Z,27.82
2023-05-08T02:40:01.474Z,27.82
2023-05-08T02:42:04.002Z,27.81
2023-05-08T02:44:06.533Z,27.80
2023-05-08T02:46:24.814Z,27.79
2023-05-08T02:48:26.243Z,27.78
2023-05-08T02:50:35.986Z,27.79
2023-05-08T02:52:52.108Z,27.80
2023-05-08T02:54:58.346Z,27.80
2023-05-08T02:57:15.270Z,27.79
2023-05-08T02:59:20.186Z,27.79
2023-05-08T03:01:27.133Z,27.79
2023-05-08T03:03:35.936Z,27.77
2023-05-08T03:05:38.639Z,27.77
2023-05-08T03:07:41.816Z,27.76
2023-05-08T03:09:45.407Z,27.76
2023-05-08T03:11:48.966Z,27.74
2023-05-08T03:13:51.496Z,27.74
2023-05-08T03:15:55.145Z,27.75
2023-05-08T03:17:58.588Z,27.75
2023-05-08T03:20:03.562Z,27.74
2023-05-08T03:22:06.246Z,27.74
2023-05-08T03:24:09.552Z,27.75
2023-05-08T03:26:11.910Z,27.74
2023-05-08T03:28:14.530Z,27.72
2023-05-08T03:30:16.607Z,27.73
2023-05-08T03:32:18.361Z,27.72
2023-05-08T03:34:21.734Z,27.71
2023-05-08T03:36:25.586Z,27.71
2023-05-08T03:38:27.324Z,27.69
2023-05-08T03:40:29.065Z,27.69
2023-05-08T03:42:31.035Z,27.69
2023-05-08T03:44:33.283Z,27.69
2023-05-08T03:46:35.702Z,27.69
2023-05-08T03:48:38.490Z,27.70
2023-05-08T03:50:40.070Z,27.69
2023-05-08T03:52:42.067Z,27.69
2023-05-08T03:54:43.661Z,27.69
2023-05-08T03:56:46.018Z,27.67
2023-05-08T03:58:50.957Z,27.67
2023-05-08T04:01:05.222Z,27.67
2023-05-08T04:03:12.884Z,27.66
2023-05-08T04:05:20.763Z,27.65
2023-05-08T04:07:31.770Z,27.66
2023-05-08T04:09:38.771Z,27.64
2023-05-08T04:11:47.345Z,27.64
2023-05-08T04:13:54.429Z,27.64
2023-05-08T04:16:00.910Z,27.64
2023-05-08T04:18:02.343Z,27.65
2023-05-08T04:20:04.661Z,27.64
2023-05-08T04:22:07.688Z,27.64
2023-05-08T04:24:12.425Z,27.64
2023-05-08T04:26:16.398Z,27.63
2023-05-08T04:28:18.802Z,27.62
2023-05-08T04:30:20.622Z,27.61
2023-05-08T04:32:22.555Z,27.61
2023-05-08T04:34:24.348Z,27.61
2023-05-08T04:36:29.407Z,27.61
2023-05-08T04:38:30.942Z,27.60
2023-05-08T04:40:32.534Z,27.60
2023-05-08T04:42:36.507Z,27.59
2023-05-08T04:44:37.932Z,27.59
2023-05-08T04:46:39.538Z,27.58
2023-05-08T04:48:41.010Z,27.59
2023-05-08T04:50:42.468Z,27.58
2023-05-08T04:52:43.956Z,27.58
2023-05-08T04:54:45.493Z,27.57
2023-05-08T04:56:47.133Z,27.57
2023-05-08T04:58:48.600Z,27.56
2023-05-08T05:00:50.063Z,27.54
2023-05-08T05:02:51.812Z,27.54
2023-05-08T05:04:53.535Z,27.54
2023-05-08T05:06:55.038Z,27.55
2023-05-08T05:08:56.786Z,27.56
2023-05-08T05:10:58.199Z,27.55
2023-05-08T05:12:59.728Z,27.54
2023-05-08T05:15:01.614Z,27.55
2023-05-08T05:17:03.164Z,27.54
2023-05-08T05:19:04.950Z,27.54
2023-05-08T05:21:06.575Z,27.53
2023-05-08T05:23:08.138Z,27.52
2023-05-08T05:25:09.970Z,27.53
2023-05-08T05:27:11.579Z,27.52
2023-05-08T05:29:13.208Z,27.52
2023-05-08T05:31:14.762Z,27.52
2023-05-08T05:33:16.540Z,27.52
2023-05-08T05:35:18.144Z,27.52
2023-05-08T05:37:23.084Z,27.52
2023-05-08T05:39:24.652Z,27.51
2023-05-08T05:41:26.118Z,27.51
2023-05-08T05:43:27.642Z,27.50
2023-05-08T05:45:31.151Z,27.51
2023-05-08T05:47:34.130Z,27.49
2023-05-08T05:49:35.576Z,27.48
2023-05-08T05:51:37.101Z,27.48
2023-05-08T05:53:38.551Z,27.47
2023-05-08T05:55:40.018Z,27.47
2023-05-08T05:57:41.889Z,27.48
2023-05-08T05:59:43.420Z,27.48
2023-05-08T06:01:45.677Z,27.48
2023-05-08T06:03:47.709Z,27.47
2023-05-08T06:05:49.359Z,27.47
2023-05-08T06:07:50.938Z,27.48
2023-05-08T06:09:53.062Z,27.48
2023-05-08T06:11:54.541Z,27.47
2023-05-08T06:13:56.090Z,27.48
2023-05-08T06:15:57.655Z,27.47
2023-05-08T06:17:59.379Z,27.46
2023-05-08T06:20:01.133Z,27.46
2023-05-08T06:22:02.804Z,27.46
2023-05-08T06:24:04.307Z,27.46
2023-05-08T06:26:05.781Z,27.46
2023-05-08T06:28:08.085Z,27.46
2023-05-08T06:30:10.835Z,27.46
2023-05-08T06:32:12.456Z,27.46
2023-05-08T06:34:13.952Z,27.45
2023-05-08T06:36:15.616Z,27.45
2023-05-08T06:38:17.220Z,27.45
2023-05-08T06:40:18.998Z,27.44
2023-05-08T06:42:20.677Z,27.44
2023-05-08T06:44:22.145Z,27.42
2023-05-08T06:46:23.777Z,27.44
2023-05-08T06:48:28.958Z,27.43
2023-05-08T06:50:31.140Z,27.43
2023-05-08T06:52:32.963Z,27.43
2023-05-08T06:54:34.433Z,27.43
2023-05-08T06:56:35.831Z,27.43
2023-05-08T06:58:37.224Z,27.43
2023-05-08T07:00:40.521Z,27.42
2023-05-08T07:02:42.038Z,27.43
2023-05-08T07:04:46.826Z,27.42
2023-05-08T07:06:48.318Z,27.40
2023-05-08T07:08:49.816Z,27.41
2023-05-08T07:10:51.412Z,27.40
2023-05-08T07:12:52.861Z,27.40
2023-05-08T07:14:55.886Z,27.39
2023-05-08T07:16:58.959Z,27.40
2023-05-08T07:19:00.590Z,27.40
2023-05-08T07:21:02.446Z,27.39
2023-05-08T07:23:03.922Z,27.40
2023-05-08T07:25:05.726Z,27.40
2023-05-08T07:27:07.220Z,27.41
2023-05-08T07:29:08.865Z,27.41
2023-05-08T07:31:10.352Z,27.40
2023-05-08T07:33:12.571Z,27.40
2023-05-08T07:35:15.482Z,27.39
2023-05-08T07:37:17.228Z,27.39
2023-05-08T07:39:18.812Z,27.38
2023-05-08T07:41:20.301Z,27.38
2023-05-08T07:43:21.708Z,27.39
2023-05-08T07:45:23.406Z,27.39
2023-05-08T07:47:27.476Z,27.40
2023-05-08T07:49:28.929Z,27.41
2023-05-08T07:51:30.342Z,27.40
2023-05-08T07:53:31.861Z,27.40
2023-05-08T07:55:33.376Z,27.40
2023-05-08T07:57:38.089Z,27.40
2023-05-08T07:59:39.636Z,27.40
2023-05-08T08:01:47.050Z,27.39
2023-05-08T08:03:48.648Z,27.40
2023-05-08T08:05:50.393Z,27.40
2023-05-08T08:07:51.937Z,27.40
2023-05-08T08:09:53.445Z,27.40
2023-05-08T08:11:54.852Z,27.40
2023-05-08T08:13:56.360Z,27.40
2023-05-08T08:15:57.917Z,27.42
2023-05-08T08:17:59.462Z,27.41
2023-05-08T08:20:01.031Z,27.42
2023-05-08T08:22:02.483Z,27.42
2023-05-08T08:24:04.127Z,27.42
2023-05-08T08:26:05.596Z,27.41
2023-05-08T08:28:07.672Z,27.31
2023-05-08T08:30:17.690Z,27.40
2023-05-08T08:32:21.630Z,27.40
2023-05-08T08:34:23.468Z,27.41
2023-05-08T08:36:24.978Z,27.41
2023-05-08T08:38:27.268Z,27.41
2023-05-08T08:40:29.136Z,27.41
2023-05-08T08:42:31.623Z,27.43
2023-05-08T08:44:33.273Z,27.44
2023-05-08T08:46:35.163Z,27.43
2023-05-08T08:48:37.717Z,27.44
2023-05-08T08:50:42.929Z,27.44
2023-05-08T08:52:51.949Z,27.44
2023-05-08T08:54:55.284Z,27.44
2023-05-08T08:56:57.108Z,27.43
2023-05-08T08:59:00.159Z,27.43
2023-05-08T09:01:04.017Z,27.44
2023-05-08T09:03:07.939Z,27.43
2023-05-08T09:05:09.767Z,27.44
2023-05-08T09:07:11.889Z,27.43
2023-05-08T09:09:13.737Z,27.44
2023-05-08T09:11:15.142Z,27.44
2023-05-08T09:13:19.639Z,27.44
2023-05-08T09:15:22.062Z,27.45
2023-05-08T09:17:23.566Z,27.45
2023-05-08T09:19:28.759Z,27.44
2023-05-08T09:21:32.097Z,27.44
2023-05-08T09:23:35.961Z,27.44
2023-05-08T09:25:47.729Z,27.43
2023-05-08T09:27:49.380Z,27.43
2023-05-08T09:30:20.485Z,27.36
2023-05-08T09:32:22.215Z,27.43
2023-05-08T09:34:25.212Z,27.44
2023-05-08T09:36:29.489Z,27.43
2023-05-08T09:38:36.978Z,27.43
2023-05-08T09:40:38.518Z,27.43
2023-05-08T09:42:40.097Z,27.43
2023-05-08T09:44:45.987Z,27.43
2023-05-08T09:46:50.499Z,27.43
2023-05-08T09:48:58.745Z,27.43
2023-05-08T09:51:08.900Z,27.42
2023-05-08T09:53:10.382Z,27.43
2023-05-08T09:55:11.913Z,27.43
2023-05-08T09:57:13.834Z,27.44
2023-05-08T09:59:28.483Z,27.45
2023-05-08T10:01:31.473Z,27.46
2023-05-08T10:03:51.452Z,27.45
2023-05-08T10:05:52.986Z,27.46
2023-05-08T10:07:54.595Z,27.46
2023-05-08T10:10:05.946Z,27.47
2023-05-08T10:12:08.111Z,27.47
2023-05-08T10:14:09.712Z,27.47
2023-05-08T10:16:14.028Z,27.49
2023-05-08T10:18:17.816Z,27.48
2023-05-08T10:20:21.354Z,27.49
2023-05-08T10:22:25.316Z,27.49
2023-05-08T10:24:27.736Z,27.50
2023-05-08T10:26:31.005Z,27.52
2023-05-08T10:28:36.792Z,27.52
2023-05-08T10:30:42.755Z,27.52
2023-05-08T10:32:45.531Z,27.54
2023-05-08T10:34:52.080Z,27.54
2023-05-08T10:36:54.437Z,27.53
2023-05-08T10:38:58.367Z,27.54
2023-05-08T10:41:01.656Z,27.55
2023-05-08T10:43:04.190Z,27.56
2023-05-08T10:45:06.457Z,27.56
2023-05-08T10:47:10.829Z,27.57
2023-05-08T10:49:16.595Z,27.56
2023-05-08T10:51:18.022Z,27.57
2023-05-08T10:53:26.216Z,27.58
2023-05-08T10:55:31.813Z,27.58
2023-05-08T10:57:33.283Z,27.59
2023-05-08T10:59:38.447Z,27.59
2023-05-08T11:01:39.986Z,27.61
2023-05-08T11:03:43.248Z,27.61
2023-05-08T11:05:46.104Z,27.61
2023-05-08T11:07:57.705Z,27.62
2023-05-08T11:10:07.118Z,27.62
2023-05-08T11:12:16.247Z,27.62
2023-05-08T11:14:18.264Z,27.61
2023-05-08T11:16:39.693Z,27.62
2023-05-08T11:19:00.247Z,27.64
2023-05-08T11:21:08.994Z,27.64
2023-05-08T11:23:29.267Z,27.65
2023-05-08T11:25:43.571Z,27.65
2023-05-08T11:27:48.132Z,27.66
2023-05-08T11:30:09.652Z,27.67
2023-05-08T11:32:11.253Z,27.67
2023-05-08T11:34:35.748Z,27.67
2023-05-08T11:36:37.182Z,27.66
2023-05-08T11:38:39.023Z,27.67
2023-05-08T11:40:54.031Z,27.68
2023-05-08T11:42:56.110Z,27.68
2023-05-08T11:45:08.241Z,27.70
2023-05-08T11:47:11.136Z,27.71
2023-05-08T11:49:14.455Z,27.72
2023-05-08T11:51:17.419Z,27.73
2023-05-08T11:53:18.955Z,27.73
2023-05-08T11:55:20.398Z,27.73
2023-05-08T11:57:22.726Z,27.73
2023-05-08T11:59:24.362Z,27.73
2023-05-08T12:01:25.903Z,27.73
2023-05-08T12:03:27.572Z,27.74
2023-05-08T12:05:29.359Z,27.74
2023-05-08T12:07:31.305Z,27.75
2023-05-08T12:09:33.034Z,27.76
2023-05-08T12:11:34.492Z,27.76
2023-05-08T12:13:36.012Z,27.76
2023-05-08T12:15:38.316Z,27.77
2023-05-08T12:17:40.843Z,27.78
2023-05-08T12:19:42.443Z,27.79
2023-05-08T12:21:50.822Z,27.80
2023-05-08T12:23:53.890Z,27.80
2023-05-08T12:26:00.608Z,27.79
2023-05-08T12:28:02.084Z,27.81
2023-05-08T12:30:13.685Z,27.80
2023-05-08T12:32:15.846Z,27.79
2023-05-08T12:34:17.646Z,27.79
2023-05-08T12:36:19.125Z,27.79
2023-05-08T12:38:25.823Z,27.80
2023-05-08T12:40:31.640Z,27.80
2023-05-08T12:42:43.107Z,27.82
2023-05-08T12:44:53.600Z,27.83
2023-05-08T12:46:56.272Z,27.83
2023-05-08T12:49:02.627Z,27.82
2023-05-08T12:51:04.493Z,27.84
2023-05-08T12:53:06.874Z,27.83
2023-05-08T12:55:24.748Z,27.83
2023-05-08T12:57:26.352Z,27.83
2023-05-08T12:59:33.812Z,27.84
2023-05-08T13:01:35.500Z,27.83
2023-05-08T13:03:37.692Z,27.84
2023-05-08T13:05:45.904Z,27.86
2023-05-08T13:07:47.439Z,27.86
2023-05-08T13:10:05.181Z,27.87
2023-05-08T13:12:06.939Z,27.87
2023-05-08T13:14:08.781Z,27.88
2023-05-08T13:16:10.442Z,27.88
2023-05-08T13:18:12.338Z,27.89
2023-05-08T13:20:14.053Z,27.89
2023-05-08T13:22:15.768Z,27.90
2023-05-08T13:24:17.366Z,27.88
2023-05-08T13:26:19.018Z,27.88
2023-05-08T13:28:20.578Z,27.89
2023-05-08T13:30:22.540Z,27.89
2023-05-08T13:32:24.002Z,27.90
2023-05-08T13:34:25.672Z,27.91
2023-05-08T13:36:27.333Z,27.92
2023-05-08T13:38:29.056Z,27.92
2023-05-08T13:40:31.275Z,27.92
2023-05-08T13:42:32.809Z,27.92
2023-05-08T13:44:34.296Z,27.93
2023-05-08T13:46:35.793Z,27.92
2023-05-08T13:48:37.258Z,27.93
2023-05-08T13:50:38.698Z,27.92
2023-05-08T13:52:40.699Z,27.91
2023-05-08T13:54:42.351Z,27.91
2023-05-08T13:56:43.851Z,27.91
2023-05-08T13:58:45.277Z,27.91
2023-05-08T14:00:46.838Z,27.92
2023-05-08T14:02:50.828Z,27.92
2023-05-08T14:04:54.074Z,27.92
2023-05-08T14:06:55.630Z,27.93
2023-05-08T14:08:57.413Z,27.93
2023-05-08T14:10:58.950Z,27.94
2023-05-08T14:13:00.442Z,27.95
2023-05-08T14:15:02.752Z,27.94
2023-05-08T14:17:04.450Z,27.94
2023-05-08T14:19:05.856Z,27.94
2023-05-08T14:21:07.229Z,27.96
2023-05-08T14:23:08.635Z,27.94
2023-05-08T14:25:10.136Z,27.94
2023-05-08T14:27:11.933Z,27.97
2023-05-08T14:29:13.487Z,27.97
2023-05-08T14:31:15.058Z,27.97
2023-05-08T14:33:18.635Z,27.98
2023-05-08T14:35:20.972Z,27.98
2023-05-08T14:37:22.534Z,27.99
2023-05-08T14:39:24.025Z,27.98
2023-05-08T14:41:29.108Z,27.99
2023-05-08T14:43:30.647Z,27.98
2023-05-08T14:45:32.261Z,27.98
2023-05-08T14:47:33.908Z,27.99
2023-05-08T14:49:38.512Z,27.99
2023-05-08T14:51:40.532Z,27.98
2023-05-08T14:53:42.137Z,27.99
2023-05-08T14:55:44.015Z,28.00
2023-05-08T14:57:49.080Z,28.00
2023-05-08T15:02:12.155Z,28.01
2023-05-08T15:04:13.893Z,28.01
2023-05-08T15:06:15.566Z,28.01
2023-05-08T15:08:17.105Z,28.00
2023-05-08T15:10:18.682Z,28.01
2023-05-08T15:12:20.179Z,28.01
2023-05-08T15:14:21.771Z,27.99
2023-05-08T15:16:23.274Z,28.00
2023-05-08T15:18:28.404Z,28.01
2023-05-08T15:20:30.102Z,28.00
2023-05-08T15:22:32.363Z,28.01
2023-05-08T15:24:33.904Z,28.01
2023-05-08T15:26:35.375Z,28.03
2023-05-08T15:28:36.784Z,28.03
2023-05-08T15:30:38.420Z,28.04
2023-05-08T15:32:40.219Z,28.04
2023-05-08T15:34:41.852Z,28.03
2023-05-08T15:36:43.356Z,28.03
2023-05-08T15:38:44.781Z,28.03
2023-05-08T15:40:46.247Z,28.02
2023-05-08T15:42:47.721Z,28.03
2023-05-08T15:46:53.532Z,28.03
2023-05-08T15:48:54.927Z,28.04
2023-05-08T15:50:56.414Z,28.04
2023-05-08T15:52:58.158Z,28.05
2023-05-08T15:54:59.588Z,28.06
2023-05-08T15:57:01.236Z,28.07
2023-05-08T15:59:02.779Z,28.07
2023-05-08T16:01:05.107Z,28.07
2023-05-08T16:03:06.691Z,28.07
2023-05-08T16:05:08.431Z,28.06
2023-05-08T16:07:09.989Z,28.06
2023-05-08T16:09:11.579Z,28.06
2023-05-08T16:11:13.063Z,28.07
2023-05-08T16:13:14.748Z,28.06
2023-05-08T16:15:16.494Z,28.06
2023-05-08T16:17:18.043Z,28.07
2023-05-08T16:19:19.899Z,28.08
2023-05-08T16:21:21.445Z,28.08
2023-05-08T16:23:22.982Z,28.08
2023-05-08T16:25:24.537Z,28.09
2023-05-08T16:27:26.359Z,28.09
2023-05-08T16:29:27.838Z,28.09
2023-05-08T16:31:29.439Z,28.07
2023-05-08T16:33:31.471Z,28.08
2023-05-08T16:35:33.508Z,28.09
2023-05-08T16:37:36.175Z,28.10
2023-05-08T16:39:38.943Z,28.09
2023-05-08T16:41:40.366Z,28.09
2023-05-08T16:43:41.789Z,28.09
2023-05-08T16:45:43.329Z,28.11
2023-05-08T16:47:44.804Z,28.11
2023-05-08T16:49:46.536Z,28.11
2023-05-08T16:51:48.052Z,28.11
2023-05-08T16:53:49.877Z,28.12
2023-05-08T16:55:51.342Z,28.11
2023-05-08T16:57:53.744Z,28.11
2023-05-08T16:59:55.352Z,28.09
2023-05-08T17:01:56.896Z,28.10
2023-05-08T17:03:58.536Z,28.10
2023-05-08T17:05:59.992Z,28.10
2023-05-08T17:08:01.520Z,28.09
2023-05-08T17:10:03.113Z,28.10
2023-05-08T17:12:04.941Z,28.11
2023-05-08T17:14:06.606Z,28.11
2023-05-08T17:16:08.168Z,28.13
2023-05-08T17:18:09.847Z,28.13
2023-05-08T17:20:11.978Z,28.12
2023-05-08T17:22:13.852Z,28.12
2023-05-08T17:24:15.271Z,28.12
2023-05-08T17:26:16.834Z,28.12
2023-05-08T17:28:18.478Z,28.13
2023-05-08T17:30:19.940Z,28.11
2023-05-08T17:32:21.445Z,28.11
2023-05-08T17:34:23.250Z,28.11
2023-05-08T17:36:24.767Z,28.12
2023-05-08T17:38:26.484Z,28.12
2023-05-08T17:40:28.896Z,28.13
2023-05-08T17:42:30.521Z,28.13
2023-05-08T17:44:32.023Z,28.14
2023-05-08T17:46:33.400Z,28.13
2023-05-08T17:48:35.361Z,28.15
2023-05-08T17:50:39.369Z,28.14
2023-05-08T17:52:41.076Z,28.11
2023-05-08T17:54:42.612Z,28.12
2023-05-08T17:56:44.520Z,28.13
2023-05-08T17:58:46.965Z,28.11
2023-05-08T18:00:48.444Z,28.10
2023-05-08T18:02:49.960Z,28.12
2023-05-08T18:04:51.617Z,28.13
2023-05-08T18:06:53.095Z,28.13
2023-05-08T18:08:54.643Z,28.13
2023-05-08T18:10:56.329Z,28.14
2023-05-08T18:12:58.093Z,28.14
2023-05-08T18:14:59.739Z,28.14
2023-05-08T18:17:01.257Z,28.15
2023-05-08T18:19:02.758Z,28.14
2023-05-08T18:21:04.203Z,28.15
2023-05-08T18:23:05.760Z,28.16
2023-05-08T18:25:07.463Z,28.16
2023-05-08T18:27:09.125Z,28.15
2023-05-08T18:29:11.032Z,28.15
2023-05-08T18:31:13.309Z,28.16
2023-05-08T18:33:15.372Z,28.16
2023-05-08T18:35:17.926Z,28.18
2023-05-08T18:37:19.397Z,28.18
2023-05-08T18:39:20.929Z,28.18
2023-05-08T18:41:22.400Z,28.18
2023-05-08T18:43:23.829Z,28.19
2023-05-08T18:45:25.830Z,28.18
2023-05-08T18:47:27.235Z,28.18
2023-05-08T18:49:29.339Z,28.19
2023-05-08T18:51:31.064Z,28.18
2023-05-08T18:53:33.174Z,28.17
2023-05-08T18:55:34.905Z,28.08
2023-05-08T18:57:36.546Z,27.99
2023-05-08T18:59:37.947Z,28.19
2023-05-08T19:01:39.381Z,28.20
2023-05-08T19:03:40.832Z,28.21
2023-05-08T19:05:42.259Z,28.21
2023-05-08T19:07:45.245Z,28.22
2023-05-08T19:09:46.682Z,28.22
2023-05-08T19:11:48.160Z,28.22
2023-05-08T19:13:51.735Z,28.21
2023-05-08T19:15:54.202Z,28.22
2023-05-08T19:17:56.180Z,28.15
2023-05-08T19:19:57.689Z,28.22
2023-05-08T19:21:59.163Z,28.23
2023-05-08T19:24:01.016Z,28.24
2023-05-08T19:26:02.536Z,28.23
2023-05-08T19:28:04.685Z,28.23
2023-05-08T19:30:06.470Z,28.26
2023-05-08T19:32:08.041Z,28.26
2023-05-08T19:34:09.533Z,28.26
2023-05-08T19:36:10.936Z,28.26
2023-05-08T19:38:12.492Z,28.26
2023-05-08T19:40:16.222Z,28.26
2023-05-08T19:42:18.004Z,28.25
2023-05-08T19:44:19.407Z,28.25
2023-05-08T19:46:21.108Z,28.25
2023-05-08T19:48:22.954Z,28.24
2023-05-08T19:50:24.604Z,28.25
2023-05-08T19:52:26.273Z,28.26
2023-05-08T19:54:28.757Z,28.25
2023-05-08T19:56:30.267Z,28.26
2023-05-08T19:58:31.762Z,28.27
2023-05-08T20:00:33.264Z,28.27
2023-05-08T20:02:34.884Z,28.26
2023-05-08T20:04:48.743Z,28.27
2023-05-08T20:06:57.885Z,28.28
2023-05-08T20:08:59.356Z,28.28
2023-05-08T20:11:03.848Z,28.26
2023-05-08T20:13:05.680Z,28.26
2023-05-08T20:15:07.515Z,28.27
2023-05-08T20:17:08.925Z,28.26
2023-05-08T20:19:10.462Z,28.27
2023-05-08T20:21:11.967Z,28.26
2023-05-08T20:23:13.453Z,28.27
2023-05-08T20:25:15.117Z,28.28
2023-05-08T20:27:16.656Z,28.29
2023-05-08T20:29:18.395Z,28.29
2023-05-08T20:31:19.866Z,28.28
2023-05-08T20:33:21.362Z,28.29
2023-05-08T20:35:22.886Z,28.28
2023-05-08T20:37:24.569Z,28.28
2023-05-08T20:39:26.100Z,28.28
2023-05-08T20:41:27.795Z,28.28
2023-05-08T20:43:29.282Z,28.28
2023-05-08T20:45:30.874Z,28.28
2023-05-08T20:47:32.376Z,28.31
2023-05-08T20:49:33.821Z,28.31
2023-05-08T20:51:36.305Z,28.31
2023-05-08T20:53:37.783Z,28.32
2023-05-08T20:55:39.184Z,28.33
2023-05-08T20:57:40.992Z,28.33
2023-05-08T20:59:42.479Z,28.33
2023-05-08T21:01:44.074Z,28.32
2023-05-08T21:03:45.573Z,28.32
2023-05-08T21:05:46.995Z,28.33
2023-05-08T21:07:48.422Z,28.32
2023-05-08T21:09:50.057Z,28.33
2023-05-08T21:11:51.618Z,28.32
2023-05-08T21:13:53.060Z,28.34
2023-05-08T21:15:54.493Z,28.34
2023-05-08T21:17:57.102Z,28.34
2023-05-08T21:19:58.660Z,28.36
2023-05-08T21:22:00.238Z,28.36
2023-05-08T21:24:01.695Z,28.36
2023-05-08T21:26:03.417Z,28.36
2023-05-08T21:28:04.979Z,28.36
2023-05-08T21:30:06.938Z,28.36
2023-05-08T21:32:10.062Z,28.36
2023-05-08T21:34:12.272Z,28.34
2023-05-08T21:36:14.009Z,28.35
2023-05-08T21:38:15.533Z,28.34
2023-05-08T21:40:17.182Z,28.36
2023-05-08T21:42:18.892Z,28.36
2023-05-08T21:44:20.810Z,28.36
2023-05-08T21:46:22.309Z,28.36
2023-05-08T21:48:24.332Z,28.37
2023-05-08T21:50:28.013Z,28.38
2023-05-08T21:52:29.856Z,28.37
2023-05-08T21:54:31.272Z,28.37
2023-05-08T21:56:32.766Z,28.37
2023-05-08T21:58:34.222Z,28.37
2023-05-08T22:00:35.672Z,28.36
2023-05-08T22:02:37.248Z,28.36
2023-05-08T22:04:38.902Z,28.35
2023-05-08T22:06:42.912Z,28.35
2023-05-08T22:08:44.337Z,28.36
2023-05-08T22:10:46.209Z,28.37
2023-05-08T22:12:48.337Z,28.37
2023-05-08T22:14:49.912Z,28.37
2023-05-08T22:16:51.414Z,28.36
2023-05-08T22:18:52.837Z,28.38
2023-05-08T22:20:55.028Z,28.38
2023-05-08T22:22:56.558Z,28.36
2023-05-08T22:24:58.062Z,28.37
2023-05-08T22:26:59.532Z,28.36
2023-05-08T22:29:01.246Z,28.36
2023-05-08T22:31:02.762Z,28.35
2023-05-08T22:33:04.465Z,28.16
2023-05-08T22:35:06.739Z,28.35
2023-05-08T22:37:08.340Z,28.36
2023-05-08T22:39:12.968Z,28.36
2023-05-08T22:41:14.512Z,28.36
2023-05-08T22:43:15.988Z,28.37
2023-05-08T22:45:17.851Z,28.36
2023-05-08T22:47:19.494Z,28.38
2023-05-08T22:49:20.913Z,28.37
2023-05-08T22:51:22.410Z,28.36
2023-05-08T22:53:25.095Z,28.37
2023-05-08T22:55:26.531Z,28.35
2023-05-08T22:57:27.997Z,28.36
2023-05-08T22:59:29.560Z,28.35
2023-05-08T23:01:31.061Z,28.35
2023-05-08T23:03:32.629Z,28.35
2023-05-08T23:05:34.153Z,28.36
2023-05-08T23:07:35.634Z,28.36
2023-05-08T23:09:37.210Z,28.36
2023-05-08T23:11:38.737Z,28.37
2023-05-08T23:13:40.214Z,28.37
2023-05-08T23:15:41.638Z,28.37
2023-05-08T23:17:43.124Z,28.35
2023-05-08T23:19:45.370Z,28.35
2023-05-08T23:21:46.981Z,28.35
2023-05-08T23:23:48.715Z,28.34
2023-05-08T23:25:50.250Z,28.34
2023-05-08T23:27:51.773Z,28.34
2023-05-08T23:29:53.217Z,28.34
2023-05-08T23:31:54.716Z,28.35
2023-05-08T23:33:56.494Z,28.34
2023-05-08T23:35:58.293Z,28.35
2023-05-08T23:37:59.743Z,28.36
2023-05-08T23:40:01.401Z,28.35
2023-05-08T23:42:03.186Z,28.35
2023-05-08T23:44:05.060Z,28.35
2023-05-08T23:46:06.958Z,28.34
2023-05-08T23:48:08.559Z,28.34
2023-05-08T23:50:10.334Z,28.33
2023-05-08T23:52:11.874Z,28.34
2023-05-08T23:54:13.739Z,28.33
2023-05-08T23:56:15.408Z,28.33
2023-05-08T23:58:18.257Z,28.33
